SpazioLink.com il tuo mini portale

Terremoti in Italia, posizione geografica

Spaziolink il MiniPortale

Home Sfondi Screenmates SuperEnalotto Posizione navi Terremoti Calendario feste Barzellette Frasi utili Giochi Meteo Gifs Software Ricerca
Lista dei terremoti in Italia in tempo reale dopo l'elaborazione dei valori rilevati dai sensori dislocati nelle zone interessate, comprendenti gli eventi sismici di elevata magnitudo sull'intero globo, per visualizzare la posizione dell'epicentro su Google Maps cliccare sul nome del luogo evidenziato in blu.
DATA ORA MAG ≥ 2 ZONA REGIONE LAT LONG PROF km
26/10/2021 08:52:31 ML 2.1 6 km a nord di Pietralunga (PG) Umbria 43.49 12.44 8.3
26/10/2021 06:42:16 ML 2.1 1 km a sud di Castello d`Argile (BO) Emilia Romagna 44.67 11.30 26.0
25/10/2021 19:53:13 ML 2.4 Adriatico Centrale (MARE) Mare 42.61 15.92 10.0
25/10/2021 09:51:32 ML 2.6 8 km a est di Norcia (PG) Umbria 42.81 13.19 11.3
24/10/2021 20:31:15 ML 2.9 4 km a ovest di Sefro (MC) Marche 43.16 12.90 69.5
24/10/2021 16:29:53 ML 3.1 Tirreno Meridionale (MARE) Mare 39.01 15.26 281.9
24/10/2021 13:00:50 ML 2.4 Tirreno Meridionale (MARE) Mare 38.54 13.30 4.5
24/10/2021 07:39:05 ML 3.3 3 km nord-est Cantiano (PU) Marche 43.50 12.65 47.9
24/10/2021 07:11:35 Mwp 6.1 Taiwan (Sea) Mondo 24.45 121.97 77.0
23/10/2021 18:40:33 ML 2.3 7 km a sud-est di Norcia (PG) Umbria 42.76 13.16 10.7
23/10/2021 03:17:19 ML 3.7 Costa Greca Ionica (GRECIA) Mare 38.71 20.51 7.3
22/10/2021 10:53:51 ML 2.1 Costa Calabra sud-orientale (Reggio di Calabria) Mare 37.80 16.14 36.4
22/10/2021 08:04:21 ML 2.2 Costa Calabra sud-orientale (Reggio di Calabria) Mare 37.62 16.28 34.0
22/10/2021 07:49:31 ML 2.0 2 km nord-est Monte Cavallo (MC) Marche 43.01 13.02 7.9
22/10/2021 05:17:17 ML 3.2 3 km nord-est Tolmezzo (UD) Friuli Venezia Giulia 46.43 13.04 11.2
22/10/2021 00:10:21 ML 2.7 Adriatico Centrale (MARE) Mare 42.63 16.30 10.0
21/10/2021 15:00:17 ML 2.0 6 km a ovest di Castel del Rio (BO) Emilia Romagna 44.22 11.43 15.9
21/10/2021 12:48:09 ML 2.2 Mar Ionio Settentrionale (MARE) Mare 39.84 16.91 24.2
21/10/2021 11:40:34 ML 2.0 Costa Siracusana (Siracusa) Mare 37.13 15.37 33.9
21/10/2021 11:24:26 ML 2.7 3 km a nord di Caino (BS) Lombardia 45.64 10.32 7.8
21/10/2021 04:30:24 ML 2.1 5 km a ovest di Moggio Udinese (UD) Friuli Venezia Giulia 46.42 13.13 14.7
21/10/2021 02:28:54 ML 3.7 5 km a sud-est di Zuglio (UD) Friuli Venezia Giulia 46.43 13.07 13.1
20/10/2021 23:06:49 ML 2.0 2 km a est di Visso (MC) Marche 42.93 13.12 9.1
20/10/2021 21:26:42 ML 2.4 2 km a est di Quattro Castella (RE) Emilia Romagna 44.63 10.50 28.0
20/10/2021 14:08:23 ML 3.6 Tirreno Meridionale (MARE) Mare 38.55 15.47 185.9
20/10/2021 07:37:14 ML 2.1 7 km a ovest di Montegallo (AP) Marche 42.85 13.24 13.0
20/10/2021 02:09:23 ML 2.2 6 km a nord-ovest di Ferriere (PC) Emilia Romagna 44.68 9.45 2.3
20/10/2021 00:30:11 ML 2.3 Mar Ionio Meridionale (MARE) Mare 37.52 16.47 28.5
19/10/2021 22:18:57 ML 2.2 3 km a est di Pietralunga (PG) Umbria 43.43 12.47 8.9
19/10/2021 20:23:15 ML 2.3 Costa Siciliana nord-orientale (Messina) Mare 38.32 15.22 116.0
19/10/2021 16:43:19 ML 2.2 Costa Marchigiana Fermana (Fermo) Mare 43.26 14.03 5.9
19/10/2021 14:03:18 ML 2.5 Costa Ferrarese (Ferrara) Mare 44.69 12.68 21.3
19/10/2021 12:52:46 ML 2.3 Isole Eolie (Messina) Mare 38.37 14.89 13.1
19/10/2021 12:26:08 ML 3.1 Costa Calabra sud-orientale (Reggio di Calabria) Mare 37.64 16.30 34.0
19/10/2021 07:32:29 Mwp 5.8 Greece (Sea) Mondo 34.51 28.21 16.8
19/10/2021 02:29:26 ML 2.9 2 km a sud-ovest di Ussita (MC) Marche 42.94 13.12 9.7
Locations of visitors to this page (counting)
- subnet mask - partners - ipcheck - favicon - speedtest - canale youtube - programmone